createdAt,value
2023-05-07T00:02:10.830Z,102195.41
2023-05-07T00:05:14.288Z,102193.63
2023-05-07T00:08:17.360Z,102204.25
2023-05-07T00:11:21.509Z,102210.41
2023-05-07T00:14:24.288Z,102200.63
2023-05-07T00:17:27.156Z,102202.38
2023-05-07T00:20:30.081Z,102194.50
2023-05-07T00:23:32.887Z,102201.69
2023-05-07T00:26:36.993Z,102196.34
2023-05-07T00:29:39.770Z,102197.31
2023-05-07T00:32:42.770Z,102192.88
2023-05-07T00:35:45.728Z,102191.94
2023-05-07T00:38:48.507Z,102199.91
2023-05-07T00:41:52.832Z,102193.63
2023-05-07T00:44:56.183Z,102199.84
2023-05-07T00:48:01.564Z,102206.19
2023-05-07T00:51:04.731Z,102199.97
2023-05-07T00:54:07.580Z,102199.03
2023-05-07T00:57:13.170Z,102196.38
2023-05-07T01:00:16.317Z,102194.66
2023-05-07T01:03:19.103Z,102197.31
2023-05-07T01:06:25.089Z,102195.56
2023-05-07T01:09:29.310Z,102208.94
2023-05-07T01:12:34.430Z,102210.72
2023-05-07T01:15:37.191Z,102210.84
2023-05-07T01:18:40.037Z,102208.19
2023-05-07T01:21:47.002Z,102199.25
2023-05-07T01:24:52.202Z,102203.75
2023-05-07T01:27:55.234Z,102208.19
2023-05-07T01:31:05.037Z,102207.16
2023-05-07T01:34:10.476Z,102208.88
2023-05-07T01:37:13.513Z,102206.16
2023-05-07T01:40:18.400Z,102212.38
2023-05-07T01:43:21.718Z,102217.78
2023-05-07T01:46:25.200Z,102223.16
2023-05-07T01:49:28.575Z,102225.00
2023-05-07T01:52:31.436Z,102217.88
2023-05-07T01:55:37.728Z,102216.03
2023-05-07T01:58:40.850Z,102220.50
2023-05-07T02:01:44.693Z,102225.91
2023-05-07T02:04:48.503Z,102229.47
2023-05-07T02:07:52.120Z,102232.19
2023-05-07T02:10:56.469Z,102230.22
2023-05-07T02:13:59.267Z,102237.28
2023-05-07T02:17:02.073Z,102241.72
2023-05-07T02:20:05.837Z,102236.41
2023-05-07T02:23:08.698Z,102236.41
2023-05-07T02:26:13.045Z,102240.00
2023-05-07T02:29:15.869Z,102238.22
2023-05-07T02:32:18.888Z,102247.19
2023-05-07T02:35:21.643Z,102246.34
2023-05-07T02:38:25.098Z,102250.84
2023-05-07T02:41:29.473Z,102248.38
2023-05-07T02:44:32.586Z,102256.38
2023-05-07T02:47:35.761Z,102258.94
2023-05-07T02:50:39.291Z,102254.34
2023-05-07T02:53:42.127Z,102252.50
2023-05-07T02:56:46.300Z,102258.84
2023-05-07T02:59:49.079Z,102262.44
2023-05-07T03:02:53.066Z,102259.88
2023-05-07T03:05:56.008Z,102262.53
2023-05-07T03:08:58.754Z,102259.88
2023-05-07T03:12:03.356Z,102259.75
2023-05-07T03:15:07.402Z,102259.88
2023-05-07T03:18:10.443Z,102259.06
2023-05-07T03:21:13.464Z,102263.56
2023-05-07T03:24:16.296Z,102263.53
2023-05-07T03:27:20.450Z,102268.88
2023-05-07T03:30:23.963Z,102265.28
2023-05-07T03:33:28.370Z,102266.03
2023-05-07T03:36:31.630Z,102267.88
2023-05-07T03:39:34.407Z,102266.94
2023-05-07T03:42:38.781Z,102266.84
2023-05-07T03:45:41.905Z,102281.03
2023-05-07T03:48:52.121Z,102282.75
2023-05-07T03:51:56.598Z,102286.34
2023-05-07T03:55:00.589Z,102283.81
2023-05-07T03:58:05.022Z,102286.44
2023-05-07T04:01:08.382Z,102284.69
2023-05-07T04:04:11.587Z,102295.38
2023-05-07T04:07:14.656Z,102290.09
2023-05-07T04:10:20.585Z,102290.91
2023-05-07T04:13:27.179Z,102290.09
2023-05-07T04:16:30.648Z,102300.69
2023-05-07T04:19:35.343Z,102295.25
2023-05-07T04:22:38.331Z,102297.84
2023-05-07T04:25:41.225Z,102307.59
2023-05-07T04:28:50.675Z,102305.84
2023-05-07T04:31:54.441Z,102313.94
2023-05-07T04:34:57.440Z,102315.69
2023-05-07T04:38:00.329Z,102322.03
2023-05-07T04:41:06.213Z,102313.97
2023-05-07T04:44:13.247Z,102320.28
2023-05-07T04:47:16.285Z,102333.59
2023-05-07T04:50:20.291Z,102331.88
2023-05-07T04:53:24.860Z,102323.81
2023-05-07T04:56:30.109Z,102333.59
2023-05-07T04:59:35.673Z,102327.31
2023-05-07T05:02:38.700Z,102331.69
2023-05-07T05:05:42.117Z,102328.09
2023-05-07T05:08:45.422Z,102334.25
2023-05-07T05:11:49.138Z,102344.94
2023-05-07T05:14:54.257Z,102334.25
2023-05-07T05:17:57.700Z,102343.22
2023-05-07T05:21:00.799Z,102339.72
2023-05-07T05:24:04.795Z,102343.28
2023-05-07T05:27:07.748Z,102337.94
2023-05-07T05:30:14.010Z,102350.44
2023-05-07T05:33:18.487Z,102350.53
2023-05-07T05:36:21.636Z,102344.38
2023-05-07T05:39:26.862Z,102348.72
2023-05-07T05:42:29.904Z,102343.31
2023-05-07T05:45:34.206Z,102363.75
2023-05-07T05:48:37.004Z,102365.53
2023-05-07T05:51:41.488Z,102370.88
2023-05-07T05:54:44.690Z,102357.63
2023-05-07T05:57:47.745Z,102357.63
2023-05-07T06:00:53.231Z,102355.00
2023-05-07T06:04:01.119Z,102349.72
2023-05-07T06:07:03.914Z,102353.28
2023-05-07T06:10:08.298Z,102350.63
2023-05-07T06:13:11.977Z,102358.63
2023-05-07T06:16:17.437Z,102358.66
2023-05-07T06:19:24.183Z,102358.56
2023-05-07T06:22:29.336Z,102352.28
2023-05-07T06:25:32.502Z,102356.66
2023-05-07T06:28:36.886Z,102361.94
2023-05-07T06:31:43.477Z,102359.25
2023-05-07T06:34:47.653Z,102362.78
2023-05-07T06:37:51.548Z,102373.50
2023-05-07T06:40:58.911Z,102370.88
2023-05-07T06:44:01.998Z,102382.44
2023-05-07T06:47:16.400Z,102374.44
2023-05-07T06:50:22.196Z,102373.63
2023-05-07T06:53:25.726Z,102377.22
2023-05-07T06:56:30.667Z,102372.78
2023-05-07T06:59:33.816Z,102371.88
2023-05-07T07:02:38.683Z,102376.28
2023-05-07T07:05:42.454Z,102379.78
2023-05-07T07:08:45.470Z,102372.63
2023-05-07T07:11:51.085Z,102381.50
2023-05-07T07:14:55.181Z,102392.13
2023-05-07T07:18:00.215Z,102383.28
2023-05-07T07:21:03.178Z,102388.66
2023-05-07T07:24:07.068Z,102384.22
2023-05-07T07:27:09.945Z,102398.47
2023-05-07T07:30:13.541Z,102390.50
2023-05-07T07:33:19.777Z,102390.56
2023-05-07T07:36:23.786Z,102392.34
2023-05-07T07:39:30.364Z,102396.84
2023-05-07T07:42:33.156Z,102398.56
2023-05-07T07:45:36.665Z,102402.06
2023-05-07T07:48:41.456Z,102399.34
2023-05-07T07:51:44.473Z,102407.28
2023-05-07T07:54:48.519Z,102402.84
2023-05-07T07:57:51.651Z,102411.78
2023-05-07T08:00:56.901Z,102409.13
2023-05-07T08:04:04.279Z,102401.13
2023-05-07T08:07:11.372Z,102405.59
2023-05-07T08:10:22.159Z,102403.00
2023-05-07T08:13:28.832Z,102410.13
2023-05-07T08:16:31.849Z,102399.41
2023-05-07T08:19:37.927Z,102408.41
2023-05-07T08:22:43.153Z,102407.47
2023-05-07T08:25:46.046Z,102404.75
2023-05-07T08:28:49.580Z,102410.06
2023-05-07T08:31:52.405Z,102394.97
2023-05-07T08:34:56.810Z,102393.97
2023-05-07T08:37:59.557Z,102396.63
2023-05-07T08:41:02.450Z,102394.88
2023-05-07T08:44:13.534Z,102402.91
2023-05-07T08:47:16.991Z,102394.88
2023-05-07T08:50:22.509Z,102398.47
2023-05-07T08:53:26.627Z,102400.28
2023-05-07T08:56:29.417Z,102397.59
2023-05-07T08:59:32.492Z,102397.59
2023-05-07T09:02:35.547Z,102397.63
2023-05-07T09:05:39.905Z,102400.28
2023-05-07T09:08:51.548Z,102398.47
2023-05-07T09:11:59.671Z,102408.22
2023-05-07T09:15:04.375Z,102401.13
2023-05-07T09:18:08.653Z,102414.41
2023-05-07T09:21:17.201Z,102402.84
2023-05-07T09:24:20.807Z,102407.28
2023-05-07T09:27:24.341Z,102414.41
2023-05-07T09:30:30.109Z,102422.41
2023-05-07T09:33:34.672Z,102407.28
2023-05-07T09:36:41.438Z,102416.22
2023-05-07T09:42:51.596Z,102397.56
2023-05-07T09:45:54.678Z,102385.13
2023-05-07T09:49:04.034Z,102403.84
2023-05-07T09:52:12.196Z,102403.78
2023-05-07T09:55:23.837Z,102393.13
2023-05-07T09:58:28.125Z,102401.09
2023-05-07T10:01:33.213Z,102408.22
2023-05-07T10:04:37.721Z,102390.44
2023-05-07T10:07:43.264Z,102389.56
2023-05-07T10:10:46.610Z,102394.88
2023-05-07T10:13:54.862Z,102397.56
2023-05-07T10:16:59.091Z,102399.34
2023-05-07T10:20:04.528Z,102406.47
2023-05-07T10:23:14.829Z,102399.34
2023-05-07T10:26:24.029Z,102392.22
2023-05-07T10:29:35.698Z,102395.78
2023-05-07T10:32:44.609Z,102400.22
2023-05-07T10:35:53.164Z,102402.84
2023-05-07T10:38:57.629Z,102405.47
2023-05-07T10:42:10.244Z,102401.00
2023-05-07T10:45:17.653Z,102394.78
2023-05-07T10:48:30.239Z,102404.59
2023-05-07T10:51:39.816Z,102405.47
2023-05-07T10:55:26.391Z,102401.94
2023-05-07T10:59:32.633Z,102397.47
2023-05-07T11:03:08.135Z,102400.16
2023-05-07T11:06:26.568Z,102396.63
2023-05-07T11:10:02.645Z,102400.22
2023-05-07T11:13:19.898Z,102414.41
2023-05-07T11:16:28.213Z,102386.84
2023-05-07T11:19:52.283Z,102399.28
2023-05-07T11:23:05.186Z,102394.78
2023-05-07T11:26:13.399Z,102392.13
2023-05-07T11:29:22.265Z,102387.72
2023-05-07T11:32:31.110Z,102383.28
2023-05-07T11:35:37.153Z,102389.44
2023-05-07T11:38:41.565Z,102393.06
2023-05-07T11:41:44.379Z,102385.06
2023-05-07T11:44:49.640Z,102386.84
2023-05-07T11:47:52.564Z,102388.59
2023-05-07T11:51:01.744Z,102395.72
2023-05-07T11:54:09.557Z,102384.16
2023-05-07T11:57:16.980Z,102388.59
2023-05-07T12:00:21.712Z,102393.06
2023-05-07T12:03:24.606Z,102399.28
2023-05-07T12:06:28.099Z,102386.84
2023-05-07T12:09:30.971Z,102382.38
2023-05-07T12:12:40.632Z,102399.28
2023-05-07T12:15:44.845Z,102393.06
2023-05-07T12:18:48.461Z,102409.06
2023-05-07T12:21:51.401Z,102398.38
2023-05-07T12:24:59.653Z,102397.50
2023-05-07T12:28:02.983Z,102395.72
2023-05-07T12:31:07.770Z,102393.06
2023-05-07T12:34:12.638Z,102398.38
2023-05-07T12:37:15.599Z,102395.72
2023-05-07T12:40:18.375Z,102395.72
2023-05-07T12:43:22.160Z,102410.78
2023-05-07T12:46:26.336Z,102395.69
2023-05-07T12:49:29.494Z,102401.88
2023-05-07T12:52:32.579Z,102388.59
2023-05-07T12:55:43.508Z,102382.34
2023-05-07T12:58:46.605Z,102393.00
2023-05-07T13:01:51.173Z,102396.56
2023-05-07T13:04:54.081Z,102381.44
2023-05-07T13:07:57.895Z,102380.53
2023-05-07T13:11:04.439Z,102375.22
2023-05-07T13:14:07.307Z,102369.88
2023-05-07T13:17:11.423Z,102380.53
2023-05-07T13:20:14.713Z,102369.00
2023-05-07T13:23:17.494Z,102374.28
2023-05-07T13:26:26.719Z,102368.03
2023-05-07T13:29:31.216Z,102381.38
2023-05-07T13:32:35.464Z,102384.06
2023-05-07T13:35:38.642Z,102376.94
2023-05-07T13:38:41.564Z,102379.59
2023-05-07T13:41:44.332Z,102378.66
2023-05-07T13:44:47.523Z,102376.88
2023-05-07T13:47:51.730Z,102379.53
2023-05-07T13:50:54.528Z,102366.22
2023-05-07T13:53:57.297Z,102364.41
2023-05-07T13:57:00.135Z,102389.31
2023-05-07T14:00:03.279Z,102384.88
2023-05-07T14:03:08.685Z,102382.22
2023-05-07T14:06:11.533Z,102377.75
2023-05-07T14:09:14.422Z,102367.97
2023-05-07T14:12:17.199Z,102376.81
2023-05-07T14:15:20.022Z,102368.81
2023-05-07T14:18:24.198Z,102379.50
2023-05-07T14:21:26.985Z,102381.25
2023-05-07T14:24:38.053Z,102379.47
2023-05-07T14:27:41.658Z,102375.94
2023-05-07T14:30:44.462Z,102365.31
2023-05-07T14:33:48.622Z,102368.81
2023-05-07T14:36:51.353Z,102365.31
2023-05-07T14:39:54.196Z,102379.53
2023-05-07T14:42:58.245Z,102383.09
2023-05-07T14:46:01.034Z,102373.31
2023-05-07T14:49:05.733Z,102373.31
2023-05-07T14:52:10.008Z,102370.66
2023-05-07T14:55:12.947Z,102374.16
2023-05-07T14:58:15.985Z,102383.97
2023-05-07T15:01:18.812Z,102377.78
2023-05-07T15:04:22.983Z,102400.06
2023-05-07T15:07:25.706Z,102388.50
2023-05-07T15:10:28.912Z,102388.56
2023-05-07T15:13:31.852Z,102390.34
2023-05-07T15:16:35.234Z,102384.09
2023-05-07T15:19:39.435Z,102389.44
2023-05-07T15:22:42.783Z,102389.44
2023-05-07T15:25:46.447Z,102389.44
2023-05-07T15:28:50.034Z,102385.88
2023-05-07T15:31:52.873Z,102383.16
2023-05-07T15:34:57.003Z,102385.78
2023-05-07T15:37:59.852Z,102393.84
2023-05-07T15:41:02.639Z,102403.63
2023-05-07T15:44:06.152Z,102398.38
2023-05-07T15:47:09.123Z,102397.47
2023-05-07T15:50:13.455Z,102393.97
2023-05-07T15:53:16.273Z,102398.38
2023-05-07T15:56:19.101Z,102403.72
2023-05-07T15:59:21.915Z,102395.72
2023-05-07T16:02:24.862Z,102399.28
2023-05-07T16:05:29.113Z,102402.78
2023-05-07T16:08:33.695Z,102401.88
2023-05-07T16:11:36.536Z,102406.28
2023-05-07T16:14:39.355Z,102409.84
2023-05-07T16:17:42.110Z,102419.63
2023-05-07T16:20:47.073Z,102410.72
2023-05-07T16:23:50.848Z,102413.44
2023-05-07T16:26:53.607Z,102418.72
2023-05-07T16:29:56.416Z,102422.28
2023-05-07T16:32:59.238Z,102423.13
2023-05-07T16:36:03.456Z,102422.19
2023-05-07T16:39:06.710Z,102423.06
2023-05-07T16:42:09.507Z,102424.84
2023-05-07T16:45:12.792Z,102426.66
2023-05-07T16:48:15.841Z,102427.56
2023-05-07T16:51:20.040Z,102416.00
2023-05-07T16:54:22.792Z,102419.50
2023-05-07T16:57:25.989Z,102424.00
2023-05-07T17:00:34.816Z,102421.28
2023-05-07T17:03:45.558Z,102423.06
2023-05-07T17:06:49.797Z,102424.84
2023-05-07T17:09:52.546Z,102425.91
2023-05-07T17:12:55.358Z,102432.31
2023-05-07T17:15:58.178Z,102438.69
2023-05-07T17:19:01.024Z,102446.81
2023-05-07T17:22:05.167Z,102449.53
2023-05-07T17:25:08.643Z,102448.66
2023-05-07T17:28:11.892Z,102445.75
2023-05-07T17:31:15.030Z,102459.81
2023-05-07T17:34:17.883Z,102456.97
2023-05-07T17:37:23.687Z,102470.19
2023-05-07T17:40:29.541Z,102460.34
2023-05-07T17:43:32.271Z,102466.59
2023-05-07T17:46:35.153Z,102464.84
2023-05-07T17:49:38.368Z,102473.75
2023-05-07T17:52:42.899Z,102467.53
2023-05-07T17:55:46.405Z,102464.09
2023-05-07T17:58:58.814Z,102472.84
2023-05-07T18:02:02.158Z,102472.84
2023-05-07T18:05:05.352Z,102487.03
2023-05-07T18:08:09.510Z,102480.75
2023-05-07T18:11:12.730Z,102487.88
2023-05-07T18:14:15.666Z,102497.69
2023-05-07T18:17:18.536Z,102503.03
2023-05-07T18:20:21.411Z,102489.69
2023-05-07T18:23:26.593Z,102494.16
2023-05-07T18:26:29.406Z,102501.22
2023-05-07T18:29:32.200Z,102492.38
2023-05-07T18:32:35.061Z,102506.59
2023-05-07T18:35:38.418Z,102510.19
2023-05-07T18:38:43.113Z,102514.59
2023-05-07T18:41:48.778Z,102522.63
2023-05-07T18:44:51.603Z,102522.66
2023-05-07T18:47:54.454Z,102531.56
2023-05-07T18:50:57.879Z,102537.84
2023-05-07T18:54:02.218Z,102538.63
2023-05-07T18:57:05.057Z,102534.16
2023-05-07T19:00:09.315Z,102532.38
2023-05-07T19:03:12.614Z,102542.16
2023-05-07T19:06:15.364Z,102543.13
2023-05-07T19:09:19.499Z,102557.34
2023-05-07T19:12:22.223Z,102558.28
2023-05-07T19:15:25.123Z,102548.56
2023-05-07T19:18:29.716Z,102545.00
2023-05-07T19:21:33.780Z,102547.69
2023-05-07T19:24:37.853Z,102556.63
2023-05-07T19:27:41.147Z,102561.94
2023-05-07T19:30:43.991Z,102566.34
2023-05-07T19:33:46.812Z,102568.13
2023-05-07T19:36:49.551Z,102573.34
2023-05-07T19:39:54.211Z,102573.25
2023-05-07T19:42:57.043Z,102575.03
2023-05-07T19:45:59.822Z,102573.25
2023-05-07T19:49:02.803Z,102565.31
2023-05-07T19:52:06.098Z,102565.41
2023-05-07T19:55:11.170Z,102573.41
2023-05-07T19:58:16.638Z,102570.84
2023-05-07T20:01:19.532Z,102577.13
2023-05-07T20:04:22.336Z,102578.84
2023-05-07T20:07:25.087Z,102581.53
2023-05-07T20:10:29.255Z,102585.97
2023-05-07T20:13:32.216Z,102585.88
2023-05-07T20:16:35.154Z,102587.59
2023-05-07T20:19:38.104Z,102583.13
2023-05-07T20:22:40.846Z,102587.63
2023-05-07T20:25:45.003Z,102583.97
2023-05-07T20:28:47.750Z,102584.91
2023-05-07T20:31:50.591Z,102590.25
2023-05-07T20:34:53.415Z,102592.03
2023-05-07T20:37:56.222Z,102593.81
2023-05-07T20:41:00.464Z,102604.53
2023-05-07T20:44:03.198Z,102600.19
2023-05-07T20:47:06.109Z,102602.00
2023-05-07T20:50:09.693Z,102603.84
2023-05-07T20:53:12.422Z,102603.75
2023-05-07T20:56:16.670Z,102607.25
2023-05-07T20:59:19.460Z,102610.75
2023-05-07T21:02:22.291Z,102612.44
2023-05-07T21:05:25.102Z,102622.25
2023-05-07T21:08:28.578Z,102624.00
2023-05-07T21:11:32.737Z,102625.88
2023-05-07T21:14:37.063Z,102636.56
2023-05-07T21:17:39.855Z,102635.72
2023-05-07T21:20:42.733Z,102635.72
2023-05-07T21:23:45.517Z,102641.97
2023-05-07T21:26:49.674Z,102637.53
2023-05-07T21:29:52.429Z,102643.81
2023-05-07T21:32:55.708Z,102648.31
2023-05-07T21:35:58.522Z,102638.47
2023-05-07T21:39:01.312Z,102649.06
2023-05-07T21:42:05.720Z,102649.03
2023-05-07T21:45:09.109Z,102652.56
2023-05-07T21:48:11.885Z,102648.16
2023-05-07T21:51:14.660Z,102649.94
2023-05-07T21:54:17.429Z,102650.03
2023-05-07T21:57:22.032Z,102651.97
2023-05-07T22:00:25.218Z,102656.44
2023-05-07T22:03:28.270Z,102662.69
2023-05-07T22:06:31.352Z,102658.19
2023-05-07T22:09:34.221Z,102663.38
2023-05-07T22:12:38.539Z,102668.84
2023-05-07T22:15:53.160Z,102666.03
2023-05-07T22:18:59.290Z,102670.41
2023-05-07T22:22:02.207Z,102666.78
2023-05-07T22:25:05.578Z,102667.63
2023-05-07T22:28:09.669Z,102665.84
2023-05-07T22:31:12.424Z,102672.13
2023-05-07T22:34:15.641Z,102675.69
2023-05-07T22:37:18.512Z,102670.38
2023-05-07T22:40:21.439Z,102670.41
2023-05-07T22:43:25.805Z,102668.66
2023-05-07T22:46:29.049Z,102669.56
2023-05-07T22:49:31.834Z,102674.00
2023-05-07T22:52:34.809Z,102664.22
2023-05-07T22:55:37.539Z,102679.34
2023-05-07T22:58:41.939Z,102672.22
2023-05-07T23:01:45.178Z,102675.72
2023-05-07T23:04:48.105Z,102676.63
2023-05-07T23:07:51.037Z,102675.75
2023-05-07T23:10:53.812Z,102666.88
2023-05-07T23:13:57.956Z,102675.75
2023-05-07T23:17:01.182Z,102680.22
2023-05-07T23:20:04.213Z,102682.91
2023-05-07T23:23:07.036Z,102684.72
2023-05-07T23:26:10.067Z,102684.72
2023-05-07T23:29:14.158Z,102684.72
2023-05-07T23:32:16.877Z,102681.22
2023-05-07T23:35:19.846Z,102688.31
2023-05-07T23:38:22.571Z,102687.47
2023-05-07T23:41:25.412Z,102678.53
2023-05-07T23:44:29.505Z,102682.91
2023-05-07T23:47:32.289Z,102685.56
2023-05-07T23:50:35.502Z,102685.56
2023-05-07T23:53:38.338Z,102684.66
2023-05-07T23:56:41.140Z,102686.44
2023-05-07T23:59:45.213Z,102687.34
